sensor_id;sensor_type;location;lat;lon;timestamp;pressure;altitude;pressure_sealevel;temperature;humidity
25947;BME280;13745;51.470;9.894;2023-05-28T00:01:38;99851.31;;;15.40;59.17
25947;BME280;13745;51.470;9.894;2023-05-28T00:04:24;99840.19;;;15.32;59.33
25947;BME280;13745;51.470;9.894;2023-05-28T00:07:10;99841.19;;;15.27;59.22
25947;BME280;13745;51.470;9.894;2023-05-28T00:09:56;99843.03;;;15.23;59.57
25947;BME280;13745;51.470;9.894;2023-05-28T00:12:41;99842.22;;;15.20;59.57
25947;BME280;13745;51.470;9.894;2023-05-28T00:15:27;99840.56;;;15.17;59.84
25947;BME280;13745;51.470;9.894;2023-05-28T00:18:12;99842.38;;;15.13;59.54
25947;BME280;13745;51.470;9.894;2023-05-28T00:20:58;99844.22;;;15.10;59.63
25947;BME280;13745;51.470;9.894;2023-05-28T00:23:45;99829.59;;;15.03;59.61
25947;BME280;13745;51.470;9.894;2023-05-28T00:26:31;99832.28;;;15.00;59.71
25947;BME280;13745;51.470;9.894;2023-05-28T00:29:16;99830.63;;;14.96;59.50
25947;BME280;13745;51.470;9.894;2023-05-28T00:32:01;99836.84;;;14.92;59.72
25947;BME280;13745;51.470;9.894;2023-05-28T00:34:46;99830.00;;;14.86;59.69
25947;BME280;13745;51.470;9.894;2023-05-28T00:37:31;99823.16;;;14.80;60.07
25947;BME280;13745;51.470;9.894;2023-05-28T00:40:18;99818.91;;;14.76;60.35
25947;BME280;13745;51.470;9.894;2023-05-28T00:43:03;99822.47;;;14.72;60.03
25947;BME280;13745;51.470;9.894;2023-05-28T00:45:49;99828.75;;;14.65;60.04
25947;BME280;13745;51.470;9.894;2023-05-28T00:48:34;99837.50;;;14.63;60.23
25947;BME280;13745;51.470;9.894;2023-05-28T00:51:19;99828.94;;;14.57;60.34
25947;BME280;13745;51.470;9.894;2023-05-28T00:54:05;99830.72;;;14.54;60.70
25947;BME280;13745;51.470;9.894;2023-05-28T00:56:53;99816.94;;;14.49;60.63
25947;BME280;13745;51.470;9.894;2023-05-28T00:59:38;99822.22;;;14.46;60.78
25947;BME280;13745;51.470;9.894;2023-05-28T01:02:24;99817.97;;;14.40;60.74
25947;BME280;13745;51.470;9.894;2023-05-28T01:05:10;99825.88;;;14.36;60.36
25947;BME280;13745;51.470;9.894;2023-05-28T01:07:55;99817.38;;;14.27;60.32
25947;BME280;13745;51.470;9.894;2023-05-28T01:10:41;99823.56;;;14.22;60.69
25947;BME280;13745;51.470;9.894;2023-05-28T01:13:28;99827.13;;;14.18;60.94
25947;BME280;13745;51.470;9.894;2023-05-28T01:16:13;99823.72;;;14.16;61.11
25947;BME280;13745;51.470;9.894;2023-05-28T01:18:59;99814.22;;;14.12;61.13
25947;BME280;13745;51.470;9.894;2023-05-28T01:21:46;99804.75;;;14.08;61.09
25947;BME280;13745;51.470;9.894;2023-05-28T01:24:40;99805.66;;;14.05;61.31
25947;BME280;13745;51.470;9.894;2023-05-28T01:27:25;99801.38;;;14.02;61.12
25947;BME280;13745;51.470;9.894;2023-05-28T01:30:11;99812.75;;;14.00;61.32
25947;BME280;13745;51.470;9.894;2023-05-28T01:32:56;99802.38;;;13.95;61.38
25947;BME280;13745;51.470;9.894;2023-05-28T01:35:42;99800.72;;;13.93;61.40
25947;BME280;13745;51.470;9.894;2023-05-28T01:38:28;99797.28;;;13.89;61.66
25947;BME280;13745;51.470;9.894;2023-05-28T01:41:15;99803.47;;;13.85;61.73
25947;BME280;13745;51.470;9.894;2023-05-28T01:44:02;99796.53;;;13.84;61.29
25947;BME280;13745;51.470;9.894;2023-05-28T01:46:48;99803.53;;;13.82;61.84
25947;BME280;13745;51.470;9.894;2023-05-28T01:49:37;99794.94;;;13.77;61.77
25947;BME280;13745;51.470;9.894;2023-05-28T01:52:22;99794.97;;;13.75;61.92
25947;BME280;13745;51.470;9.894;2023-05-28T01:55:08;99798.47;;;13.73;62.03
25947;BME280;13745;51.470;9.894;2023-05-28T01:57:56;99785.53;;;13.70;62.62
25947;BME280;13745;51.470;9.894;2023-05-28T02:00:47;99791.66;;;13.67;62.54
25947;BME280;13745;51.470;9.894;2023-05-28T02:03:34;99791.69;;;13.66;62.60
25947;BME280;13745;51.470;9.894;2023-05-28T02:06:19;99790.84;;;13.64;62.63
25947;BME280;13745;51.470;9.894;2023-05-28T02:09:04;99779.59;;;13.62;62.75
25947;BME280;13745;51.470;9.894;2023-05-28T02:11:50;99778.75;;;13.61;62.46
25947;BME280;13745;51.470;9.894;2023-05-28T02:14:37;99783.13;;;13.59;62.56
25947;BME280;13745;51.470;9.894;2023-05-28T02:17:23;99778.78;;;13.60;62.63
25947;BME280;13745;51.470;9.894;2023-05-28T02:20:09;99784.03;;;13.57;62.83
25947;BME280;13745;51.470;9.894;2023-05-28T02:22:56;99772.81;;;13.53;62.68
25947;BME280;13745;51.470;9.894;2023-05-28T02:25:41;99774.66;;;13.49;62.83
25947;BME280;13745;51.470;9.894;2023-05-28T02:28:26;99776.41;;;13.47;62.81
25947;BME280;13745;51.470;9.894;2023-05-28T02:31:13;99774.69;;;13.46;62.91
25947;BME280;13745;51.470;9.894;2023-05-28T02:33:58;99781.72;;;13.43;62.77
25947;BME280;13745;51.470;9.894;2023-05-28T02:36:43;99785.22;;;13.40;62.51
25947;BME280;13745;51.470;9.894;2023-05-28T02:39:30;99787.91;;;13.36;62.60
25947;BME280;13745;51.470;9.894;2023-05-28T02:42:15;99782.78;;;13.31;62.38
25947;BME280;13745;51.470;9.894;2023-05-28T02:45:01;99781.19;;;13.24;62.31
25947;BME280;13745;51.470;9.894;2023-05-28T02:47:48;99776.06;;;13.18;62.58
25947;BME280;13745;51.470;9.894;2023-05-28T02:50:36;99770.03;;;13.14;62.64
25947;BME280;13745;51.470;9.894;2023-05-28T02:53:46;99776.16;;;13.12;62.55
25947;BME280;13745;51.470;9.894;2023-05-28T02:56:31;99771.91;;;13.06;62.56
25947;BME280;13745;51.470;9.894;2023-05-28T02:59:16;99769.38;;;13.02;62.57
25947;BME280;13745;51.470;9.894;2023-05-28T03:02:01;99768.56;;;13.00;62.83
25947;BME280;13745;51.470;9.894;2023-05-28T03:04:47;99772.94;;;12.96;62.79
25947;BME280;13745;51.470;9.894;2023-05-28T03:07:33;99776.50;;;12.92;62.73
25947;BME280;13745;51.470;9.894;2023-05-28T03:10:18;99773.97;;;12.87;62.79
25947;BME280;13745;51.470;9.894;2023-05-28T03:13:03;99777.47;;;12.85;62.71
25947;BME280;13745;51.470;9.894;2023-05-28T03:15:49;99775.75;;;12.82;62.81
25947;BME280;13745;51.470;9.894;2023-05-28T03:18:34;99781.03;;;12.79;62.81
25947;BME280;13745;51.470;9.894;2023-05-28T03:21:21;99787.19;;;12.75;62.92
25947;BME280;13745;51.470;9.894;2023-05-28T03:24:07;99788.06;;;12.73;62.90
25947;BME280;13745;51.470;9.894;2023-05-28T03:27:02;99781.19;;;12.70;62.98
25947;BME280;13745;51.470;9.894;2023-05-28T03:29:47;99785.56;;;12.68;63.36
25947;BME280;13745;51.470;9.894;2023-05-28T03:32:44;99786.44;;;12.67;63.11
25947;BME280;13745;51.470;9.894;2023-05-28T03:35:29;99789.03;;;12.65;63.18
25947;BME280;13745;51.470;9.894;2023-05-28T03:38:15;99790.78;;;12.65;63.48
25947;BME280;13745;51.470;9.894;2023-05-28T03:41:01;99794.25;;;12.64;63.35
25947;BME280;13745;51.470;9.894;2023-05-28T03:43:46;99799.47;;;12.64;63.29
25947;BME280;13745;51.470;9.894;2023-05-28T03:46:31;99796.03;;;12.62;63.19
25947;BME280;13745;51.470;9.894;2023-05-28T03:49:16;99806.47;;;12.60;63.34
25947;BME280;13745;51.470;9.894;2023-05-28T03:52:02;99799.53;;;12.61;63.39
25947;BME280;13745;51.470;9.894;2023-05-28T03:54:59;99807.31;;;12.61;63.48
25947;BME280;13745;51.470;9.894;2023-05-28T03:57:45;99806.47;;;12.60;63.46
25947;BME280;13745;51.470;9.894;2023-05-28T04:00:31;99805.59;;;12.61;63.31
25947;BME280;13745;51.470;9.894;2023-05-28T04:03:16;99805.59;;;12.61;63.59
25947;BME280;13745;51.470;9.894;2023-05-28T04:06:03;99800.38;;;12.61;63.59
25947;BME280;13745;51.470;9.894;2023-05-28T04:08:49;99799.53;;;12.61;63.48
25947;BME280;13745;51.470;9.894;2023-05-28T04:11:36;99803.88;;;12.60;63.36
25947;BME280;13745;51.470;9.894;2023-05-28T04:14:29;99799.53;;;12.61;63.47
25947;BME280;13745;51.470;9.894;2023-05-28T04:17:14;99799.50;;;12.62;63.77
25947;BME280;13745;51.470;9.894;2023-05-28T04:20:00;99793.41;;;12.63;63.83
25947;BME280;13745;51.470;9.894;2023-05-28T04:22:45;99797.69;;;12.68;64.15
25947;BME280;13745;51.470;9.894;2023-05-28T04:25:32;99801.09;;;12.71;64.14
25947;BME280;13745;51.470;9.894;2023-05-28T04:28:18;99795.84;;;12.74;64.13
25947;BME280;13745;51.470;9.894;2023-05-28T04:31:04;99803.53;;;12.82;64.37
25947;BME280;13745;51.470;9.894;2023-05-28T04:33:49;99801.75;;;12.85;64.47
25947;BME280;13745;51.470;9.894;2023-05-28T04:36:35;99811.19;;;12.92;64.54
25947;BME280;13745;51.470;9.894;2023-05-28T04:39:21;99810.19;;;12.98;64.56
25947;BME280;13745;51.470;9.894;2023-05-28T04:42:06;99805.75;;;13.05;64.70
25947;BME280;13745;51.470;9.894;2023-05-28T04:44:54;99803.88;;;13.13;64.69
25947;BME280;13745;51.470;9.894;2023-05-28T04:47:41;99798.59;;;13.20;64.59
25947;BME280;13745;51.470;9.894;2023-05-28T04:50:26;99797.63;;;13.26;64.44
25947;BME280;13745;51.470;9.894;2023-05-28T04:53:11;99794.91;;;13.34;64.71
25947;BME280;13745;51.470;9.894;2023-05-28T04:55:57;99797.38;;;13.41;64.71
25947;BME280;13745;51.470;9.894;2023-05-28T04:58:42;99800.72;;;13.46;64.79
25947;BME280;13745;51.470;9.894;2023-05-28T05:01:28;99793.69;;;13.52;64.90
25947;BME280;13745;51.470;9.894;2023-05-28T05:04:14;99786.56;;;13.61;64.88
25947;BME280;13745;51.470;9.894;2023-05-28T05:06:59;99794.19;;;13.70;65.17
25947;BME280;13745;51.470;9.894;2023-05-28T05:09:45;99793.13;;;13.82;65.17
25947;BME280;13745;51.470;9.894;2023-05-28T05:12:31;99797.25;;;13.92;65.10
25947;BME280;13745;51.470;9.894;2023-05-28T05:15:16;99798.72;;;14.04;64.90
25947;BME280;13745;51.470;9.894;2023-05-28T05:18:03;99795.84;;;14.18;65.05
25947;BME280;13745;51.470;9.894;2023-05-28T05:20:48;99794.72;;;14.29;65.00
25947;BME280;13745;51.470;9.894;2023-05-28T05:23:33;99791.81;;;14.43;64.84
25947;BME280;13745;51.470;9.894;2023-05-28T05:26:19;99785.47;;;14.56;64.47
25947;BME280;13745;51.470;9.894;2023-05-28T05:29:05;99774.72;;;14.69;64.45
25947;BME280;13745;51.470;9.894;2023-05-28T05:31:50;99774.38;;;14.84;64.63
25947;BME280;13745;51.470;9.894;2023-05-28T05:34:37;99774.91;;;14.97;64.58
25947;BME280;13745;51.470;9.894;2023-05-28T05:37:41;99769.31;;;15.12;64.32
25947;BME280;13745;51.470;9.894;2023-05-28T05:40:47;99773.28;;;15.27;64.08
25947;BME280;13745;51.470;9.894;2023-05-28T05:43:50;99780.66;;;15.43;64.31
25947;BME280;13745;51.470;9.894;2023-05-28T05:46:35;99775.13;;;15.56;64.17
25947;BME280;13745;51.470;9.894;2023-05-28T05:49:22;99779.09;;;15.70;64.06
25947;BME280;13745;51.470;9.894;2023-05-28T05:52:08;99778.75;;;15.83;63.73
25947;BME280;13745;51.470;9.894;2023-05-28T05:54:56;99772.19;;;15.99;63.84
25947;BME280;13745;51.470;9.894;2023-05-28T05:57:41;99777.84;;;16.13;63.74
25947;BME280;13745;51.470;9.894;2023-05-28T06:00:28;99773.94;;;16.28;63.77
25947;BME280;13745;51.470;9.894;2023-05-28T06:03:16;99769.03;;;16.45;63.74
25947;BME280;13745;51.470;9.894;2023-05-28T06:06:30;99778.94;;;16.64;63.34
25947;BME280;13745;51.470;9.894;2023-05-28T06:09:39;99774.19;;;16.76;63.29
25947;BME280;13745;51.470;9.894;2023-05-28T06:12:36;99765.00;;;16.91;62.83
25947;BME280;13745;51.470;9.894;2023-05-28T06:15:22;99763.66;;;17.04;62.68
25947;BME280;13745;51.470;9.894;2023-05-28T06:18:09;99760.56;;;17.18;63.16
25947;BME280;13745;51.470;9.894;2023-05-28T06:20:55;99772.31;;;17.33;62.60
25947;BME280;13745;51.470;9.894;2023-05-28T06:23:40;99770.06;;;17.47;62.50
25947;BME280;13745;51.470;9.894;2023-05-28T06:26:27;99771.38;;;17.59;62.67
25947;BME280;13745;51.470;9.894;2023-05-28T06:29:13;99768.38;;;17.71;62.39
25947;BME280;13745;51.470;9.894;2023-05-28T06:31:58;99774.81;;;17.86;62.04
25947;BME280;13745;51.470;9.894;2023-05-28T06:34:43;99774.38;;;17.98;62.24
25947;BME280;13745;51.470;9.894;2023-05-28T06:37:29;99768.63;;;18.10;62.21
25947;BME280;13745;51.470;9.894;2023-05-28T06:40:15;99785.63;;;18.23;62.02
25947;BME280;13745;51.470;9.894;2023-05-28T06:43:01;99777.28;;;18.36;61.93
25947;BME280;13745;51.470;9.894;2023-05-28T06:45:51;99780.16;;;18.51;61.77
25947;BME280;13745;51.470;9.894;2023-05-28T06:48:36;99776.22;;;18.63;61.74
25947;BME280;13745;51.470;9.894;2023-05-28T06:51:22;99780.81;;;18.80;61.73
25947;BME280;13745;51.470;9.894;2023-05-28T06:54:08;99775.84;;;18.94;61.17
25947;BME280;13745;51.470;9.894;2023-05-28T06:56:55;99774.44;;;19.07;60.95
25947;BME280;13745;51.470;9.894;2023-05-28T07:00:06;99784.31;;;19.23;60.75
25947;BME280;13745;51.470;9.894;2023-05-28T07:03:21;99780.88;;;19.41;60.44
25947;BME280;13745;51.470;9.894;2023-05-28T07:06:22;99784.69;;;19.54;60.11
25947;BME280;13745;51.470;9.894;2023-05-28T07:09:08;99786.72;;;19.68;59.91
25947;BME280;13745;51.470;9.894;2023-05-28T07:11:54;99781.72;;;19.82;59.66
25947;BME280;13745;51.470;9.894;2023-05-28T07:14:40;99779.25;;;19.98;59.46
25947;BME280;13745;51.470;9.894;2023-05-28T07:17:26;99784.75;;;20.12;59.26
25947;BME280;13745;51.470;9.894;2023-05-28T07:20:12;99777.00;;;20.28;58.72
25947;BME280;13745;51.470;9.894;2023-05-28T07:23:07;99784.22;;;20.42;58.53
25947;BME280;13745;51.470;9.894;2023-05-28T07:25:53;99783.47;;;20.59;58.60
25947;BME280;13745;51.470;9.894;2023-05-28T07:28:41;99785.28;;;20.75;58.41
25947;BME280;13745;51.470;9.894;2023-05-28T07:31:27;99786.31;;;20.90;58.29
25947;BME280;13745;51.470;9.894;2023-05-28T07:34:15;99787.28;;;21.07;58.09
25947;BME280;13745;51.470;9.894;2023-05-28T07:37:01;99790.09;;;21.21;57.86
25947;BME280;13745;51.470;9.894;2023-05-28T07:39:46;99794.66;;;21.35;57.38
25947;BME280;13745;51.470;9.894;2023-05-28T07:42:31;99790.41;;;21.49;57.16
25947;BME280;13745;51.470;9.894;2023-05-28T07:45:20;99787.81;;;21.65;56.71
25947;BME280;13745;51.470;9.894;2023-05-28T07:48:05;99790.59;;;21.79;56.40
25947;BME280;13745;51.470;9.894;2023-05-28T07:51:08;99788.09;;;21.94;56.78
25947;BME280;13745;51.470;9.894;2023-05-28T07:53:59;99795.13;;;22.10;55.67
25947;BME280;13745;51.470;9.894;2023-05-28T07:56:46;99790.78;;;22.25;56.34
25947;BME280;13745;51.470;9.894;2023-05-28T07:59:38;99788.09;;;22.42;55.90
25947;BME280;13745;51.470;9.894;2023-05-28T08:02:23;99789.94;;;22.56;55.47
25947;BME280;13745;51.470;9.894;2023-05-28T08:05:09;99791.53;;;22.75;55.22
25947;BME280;13745;51.470;9.894;2023-05-28T08:07:56;99787.19;;;22.89;54.70
25947;BME280;13745;51.470;9.894;2023-05-28T08:10:41;99788.97;;;23.05;54.55
25947;BME280;13745;51.470;9.894;2023-05-28T08:13:26;99789.03;;;23.19;54.33
25947;BME280;13745;51.470;9.894;2023-05-28T08:16:12;99782.03;;;23.32;54.02
25947;BME280;13745;51.470;9.894;2023-05-28T08:19:16;99781.97;;;23.48;53.67
25947;BME280;13745;51.470;9.894;2023-05-28T08:22:04;99773.25;;;23.62;53.75
25947;BME280;13745;51.470;9.894;2023-05-28T08:24:52;99776.66;;;23.78;53.02
25947;BME280;13745;51.470;9.894;2023-05-28T08:27:37;99775.91;;;23.90;53.95
25947;BME280;13745;51.470;9.894;2023-05-28T08:30:22;99766.16;;;24.05;53.16
25947;BME280;13745;51.470;9.894;2023-05-28T08:33:24;99757.13;;;24.22;53.10
25947;BME280;13745;51.470;9.894;2023-05-28T08:36:09;99757.03;;;24.37;52.96
25947;BME280;13745;51.470;9.894;2023-05-28T08:38:55;99761.38;;;24.53;52.81
25947;BME280;13745;51.470;9.894;2023-05-28T08:41:42;99757.06;;;24.64;52.24
25947;BME280;13745;51.470;9.894;2023-05-28T08:44:28;99755.09;;;24.81;52.54
25947;BME280;13745;51.470;9.894;2023-05-28T08:47:13;99754.06;;;24.96;51.34
25947;BME280;13745;51.470;9.894;2023-05-28T08:50:06;99752.13;;;25.12;51.84
25947;BME280;13745;51.470;9.894;2023-05-28T08:53:10;99746.34;;;25.33;51.75
25947;BME280;13745;51.470;9.894;2023-05-28T08:55:59;99739.88;;;25.49;51.46
25947;BME280;13745;51.470;9.894;2023-05-28T08:58:50;99730.06;;;25.63;50.18
25947;BME280;13745;51.470;9.894;2023-05-28T09:01:36;99729.88;;;25.79;50.58
25947;BME280;13745;51.470;9.894;2023-05-28T09:04:27;99729.53;;;25.96;49.86
25947;BME280;13745;51.470;9.894;2023-05-28T09:07:13;99723.34;;;26.08;49.04
25947;BME280;13745;51.470;9.894;2023-05-28T09:10:10;99714.28;;;26.23;48.85
25947;BME280;13745;51.470;9.894;2023-05-28T09:12:59;99706.22;;;26.36;48.38
25947;BME280;13745;51.470;9.894;2023-05-28T09:15:49;99705.97;;;26.52;47.81
25947;BME280;13745;51.470;9.894;2023-05-28T09:18:35;99701.09;;;26.70;47.76
25947;BME280;13745;51.470;9.894;2023-05-28T09:21:21;99696.56;;;26.83;47.16
25947;BME280;13745;51.470;9.894;2023-05-28T09:24:07;99694.66;;;26.96;47.25
25947;BME280;13745;51.470;9.894;2023-05-28T09:27:15;99692.78;;;27.09;45.42
25947;BME280;13745;51.470;9.894;2023-05-28T09:30:07;99689.41;;;27.19;45.41
25947;BME280;13745;51.470;9.894;2023-05-28T09:33:00;99691.88;;;27.33;45.47
25947;BME280;13745;51.470;9.894;2023-05-28T09:35:57;99688.88;;;27.49;45.52
25947;BME280;13745;51.470;9.894;2023-05-28T09:38:43;99689.34;;;27.65;44.28
25947;BME280;13745;51.470;9.894;2023-05-28T09:41:28;99680.28;;;27.79;44.57
25947;BME280;13745;51.470;9.894;2023-05-28T09:44:19;99674.69;;;27.93;43.89
25947;BME280;13745;51.470;9.894;2023-05-28T09:47:12;99678.16;;;28.05;44.04
25947;BME280;13745;51.470;9.894;2023-05-28T09:49:59;99670.16;;;28.16;43.97
25947;BME280;13745;51.470;9.894;2023-05-28T09:52:46;99668.44;;;28.26;43.01
25947;BME280;13745;51.470;9.894;2023-05-28T09:55:32;99666.84;;;28.35;43.89
25947;BME280;13745;51.470;9.894;2023-05-28T09:58:23;99672.28;;;28.44;43.97
25947;BME280;13745;51.470;9.894;2023-05-28T10:01:13;99671.28;;;28.57;42.60
25947;BME280;13745;51.470;9.894;2023-05-28T10:04:02;99671.34;;;28.66;42.63
25947;BME280;13745;51.470;9.894;2023-05-28T10:06:52;99676.47;;;28.79;41.85
25947;BME280;13745;51.470;9.894;2023-05-28T10:09:39;99672.19;;;28.88;40.99
25947;BME280;13745;51.470;9.894;2023-05-28T10:12:28;99676.34;;;28.92;41.24
25947;BME280;13745;51.470;9.894;2023-05-28T10:15:14;99675.97;;;28.96;40.72
25947;BME280;13745;51.470;9.894;2023-05-28T10:17:59;99672.50;;;29.05;41.07
25947;BME280;13745;51.470;9.894;2023-05-28T10:20:46;99668.44;;;29.11;41.69
25947;BME280;13745;51.470;9.894;2023-05-28T10:23:33;99676.25;;;29.24;41.21
25947;BME280;13745;51.470;9.894;2023-05-28T10:26:19;99675.59;;;29.31;40.46
25947;BME280;13745;51.470;9.894;2023-05-28T10:29:06;99670.59;;;29.38;40.83
25947;BME280;13745;51.470;9.894;2023-05-28T10:31:58;99671.47;;;29.48;40.08
25947;BME280;13745;51.470;9.894;2023-05-28T10:34:44;99679.28;;;29.61;39.71
25947;BME280;13745;51.470;9.894;2023-05-28T10:37:30;99683.38;;;29.65;39.59
25947;BME280;13745;51.470;9.894;2023-05-28T10:40:22;99679.06;;;29.74;40.03
25947;BME280;13745;51.470;9.894;2023-05-28T10:46:35;99677.13;;;29.95;40.41
25947;BME280;13745;51.470;9.894;2023-05-28T10:49:20;99678.13;;;30.04;40.62
25947;BME280;13745;51.470;9.894;2023-05-28T10:52:07;99685.25;;;30.14;39.75
25947;BME280;13745;51.470;9.894;2023-05-28T10:54:53;99676.53;;;30.22;39.81
25947;BME280;13745;51.470;9.894;2023-05-28T10:57:42;99673.28;;;30.28;40.30
25947;BME280;13745;51.470;9.894;2023-05-28T11:00:28;99669.91;;;30.36;39.86
25947;BME280;13745;51.470;9.894;2023-05-28T11:03:13;99677.09;;;30.45;38.29
25947;BME280;13745;51.470;9.894;2023-05-28T11:06:02;99669.66;;;30.48;38.23
25947;BME280;13745;51.470;9.894;2023-05-28T11:08:48;99675.00;;;30.58;38.56
25947;BME280;13745;51.470;9.894;2023-05-28T11:11:37;99675.59;;;30.62;38.70
25947;BME280;13745;51.470;9.894;2023-05-28T11:14:29;99665.56;;;30.64;38.81
25947;BME280;13745;51.470;9.894;2023-05-28T11:17:14;99675.72;;;30.70;38.69
25947;BME280;13745;51.470;9.894;2023-05-28T11:20:01;99673.78;;;30.72;38.01
25947;BME280;13745;51.470;9.894;2023-05-28T11:22:48;99667.28;;;30.74;36.83
25947;BME280;13745;51.470;9.894;2023-05-28T11:25:33;99667.56;;;30.81;37.20
25947;BME280;13745;51.470;9.894;2023-05-28T11:28:19;99663.75;;;30.84;37.00
25947;BME280;13745;51.470;9.894;2023-05-28T11:31:08;99667.13;;;30.86;36.46
25947;BME280;13745;51.470;9.894;2023-05-28T11:33:54;99664.88;;;30.91;36.27
25947;BME280;13745;51.470;9.894;2023-05-28T11:36:40;99660.94;;;30.95;35.41
25947;BME280;13745;51.470;9.894;2023-05-28T11:39:26;99661.31;;;31.00;35.38
25947;BME280;13745;51.470;9.894;2023-05-28T11:42:11;99660.47;;;30.99;35.18
25947;BME280;13745;51.470;9.894;2023-05-28T11:44:56;99649.91;;;30.98;34.85
25947;BME280;13745;51.470;9.894;2023-05-28T11:47:42;99641.88;;;30.98;36.44
25947;BME280;13745;51.470;9.894;2023-05-28T11:50:30;99644.09;;;31.02;35.88
25947;BME280;13745;51.470;9.894;2023-05-28T11:53:16;99642.16;;;31.04;36.40
25947;BME280;13745;51.470;9.894;2023-05-28T11:56:01;99635.94;;;31.04;36.50
25947;BME280;13745;51.470;9.894;2023-05-28T11:58:46;99635.66;;;31.07;35.94
25947;BME280;13745;51.470;9.894;2023-05-28T12:01:32;99635.50;;;31.09;36.39
25947;BME280;13745;51.470;9.894;2023-05-28T12:04:23;99630.00;;;31.10;36.30
25947;BME280;13745;51.470;9.894;2023-05-28T12:07:11;99628.56;;;31.16;37.34
25947;BME280;13745;51.470;9.894;2023-05-28T12:10:06;99636.31;;;31.19;37.26
25947;BME280;13745;51.470;9.894;2023-05-28T12:12:54;99627.88;;;31.23;36.78
25947;BME280;13745;51.470;9.894;2023-05-28T12:15:40;99629.25;;;31.27;36.43
25947;BME280;13745;51.470;9.894;2023-05-28T12:18:27;99622.78;;;31.30;35.64
25947;BME280;13745;51.470;9.894;2023-05-28T12:21:14;99622.63;;;31.31;35.69
25947;BME280;13745;51.470;9.894;2023-05-28T12:24:09;99617.13;;;31.33;35.82
25947;BME280;13745;51.470;9.894;2023-05-28T12:26:56;99624.84;;;31.36;36.00
25947;BME280;13745;51.470;9.894;2023-05-28T12:29:41;99633.63;;;31.38;36.42
25947;BME280;13745;51.470;9.894;2023-05-28T12:32:26;99626.69;;;31.36;37.06
25947;BME280;13745;51.470;9.894;2023-05-28T12:35:11;99631.78;;;31.39;36.99
25947;BME280;13745;51.470;9.894;2023-05-28T12:37:57;99621.91;;;31.39;37.00
25947;BME280;13745;51.470;9.894;2023-05-28T12:40:43;99621.75;;;31.41;36.37
25947;BME280;13745;51.470;9.894;2023-05-28T12:43:28;99621.59;;;31.42;36.49
25947;BME280;13745;51.470;9.894;2023-05-28T12:46:13;99614.25;;;31.44;36.18
25947;BME280;13745;51.470;9.894;2023-05-28T12:48:58;99615.94;;;31.45;35.62
25947;BME280;13745;51.470;9.894;2023-05-28T12:51:43;99607.75;;;31.47;34.95
25947;BME280;13745;51.470;9.894;2023-05-28T12:54:30;99604.38;;;31.45;35.61
25947;BME280;13745;51.470;9.894;2023-05-28T12:57:15;99598.31;;;31.43;35.38
25947;BME280;13745;51.470;9.894;2023-05-28T13:00:00;99594.25;;;31.39;35.70
25947;BME280;13745;51.470;9.894;2023-05-28T13:02:48;99595.38;;;31.36;36.50
25947;BME280;13745;51.470;9.894;2023-05-28T13:05:33;99598.22;;;31.35;36.52
25947;BME280;13745;51.470;9.894;2023-05-28T13:08:18;99591.47;;;31.30;36.38
25947;BME280;13745;51.470;9.894;2023-05-28T13:11:05;99585.69;;;31.25;36.52
25947;BME280;13745;51.470;9.894;2023-05-28T13:13:51;99585.84;;;31.24;35.85
25947;BME280;13745;51.470;9.894;2023-05-28T13:16:36;99585.16;;;31.22;36.79
25947;BME280;13745;51.470;9.894;2023-05-28T13:19:22;99581.75;;;31.20;36.73
25947;BME280;13745;51.470;9.894;2023-05-28T13:22:08;99590.53;;;31.22;36.47
25947;BME280;13745;51.470;9.894;2023-05-28T13:24:56;99586.84;;;31.23;36.79
25947;BME280;13745;51.470;9.894;2023-05-28T13:27:43;99574.69;;;31.19;36.36
25947;BME280;13745;51.470;9.894;2023-05-28T13:30:28;99574.00;;;31.17;36.93
25947;BME280;13745;51.470;9.894;2023-05-28T13:33:13;99574.31;;;31.14;36.46
25947;BME280;13745;51.470;9.894;2023-05-28T13:35:58;99578.09;;;31.11;36.73
25947;BME280;13745;51.470;9.894;2023-05-28T13:38:44;99571.06;;;31.10;37.30
25947;BME280;13745;51.470;9.894;2023-05-28T13:41:31;99580.38;;;31.06;37.86
25947;BME280;13745;51.470;9.894;2023-05-28T13:44:18;99575.63;;;31.00;38.64
25947;BME280;13745;51.470;9.894;2023-05-28T13:47:04;99577.75;;;30.96;38.18
25947;BME280;13745;51.470;9.894;2023-05-28T13:49:49;99573.50;;;30.94;38.33
25947;BME280;13745;51.470;9.894;2023-05-28T13:52:34;99577.19;;;30.93;38.87
25947;BME280;13745;51.470;9.894;2023-05-28T13:55:19;99576.78;;;30.88;39.32
25947;BME280;13745;51.470;9.894;2023-05-28T13:58:04;99580.47;;;30.87;39.91
25947;BME280;13745;51.470;9.894;2023-05-28T14:00:52;99569.03;;;30.85;40.18
25947;BME280;13745;51.470;9.894;2023-05-28T14:03:39;99572.84;;;30.82;38.67
25947;BME280;13745;51.470;9.894;2023-05-28T14:06:28;99566.38;;;30.75;39.28
25947;BME280;13745;51.470;9.894;2023-05-28T14:09:15;99565.97;;;30.70;38.90
25947;BME280;13745;51.470;9.894;2023-05-28T14:12:00;99559.34;;;30.64;39.04
25947;BME280;13745;51.470;9.894;2023-05-28T14:14:45;99571.47;;;30.59;38.31
25947;BME280;13745;51.470;9.894;2023-05-28T14:17:31;99558.78;;;30.51;38.94
25947;BME280;13745;51.470;9.894;2023-05-28T14:20:17;99565.44;;;30.47;38.56
25947;BME280;13745;51.470;9.894;2023-05-28T14:23:02;99565.00;;;30.42;39.11
25947;BME280;13745;51.470;9.894;2023-05-28T14:25:47;99562.88;;;30.36;38.50
25947;BME280;13745;51.470;9.894;2023-05-28T14:28:33;99560.81;;;30.30;38.49
25947;BME280;13745;51.470;9.894;2023-05-28T14:31:18;99559.22;;;30.27;38.56
25947;BME280;13745;51.470;9.894;2023-05-28T14:34:04;99556.72;;;30.26;37.64
25947;BME280;13745;51.470;9.894;2023-05-28T14:36:49;99557.53;;;30.26;37.75
25947;BME280;13745;51.470;9.894;2023-05-28T14:39:34;99560.38;;;30.25;38.54
25947;BME280;13745;51.470;9.894;2023-05-28T14:42:19;99563.44;;;30.20;38.46
25947;BME280;13745;51.470;9.894;2023-05-28T14:45:05;99551.38;;;30.16;38.20
25947;BME280;13745;51.470;9.894;2023-05-28T14:47:50;99555.03;;;30.15;38.41
25947;BME280;13745;51.470;9.894;2023-05-28T14:50:37;99557.00;;;30.13;38.52